Time;durP1;ratioP1;P1;durP2;ratioP2;P2;SDS_P1;SDS_P2;PMS_P1;PMS_P2;Temp;Humidity;BMP_temperature;BMP_pressure;BME280_temperature;BME280_humidity;BME280_pressure;Samples;Min_cycle;Max_cycle;Signal;HPM_P1;HPM_P2
2022/01/14 00:01:49;;;;;;;39.25;17.27;;;;;;;;;;4929866;29;20138;-61
2022/01/14 00:04:17;;;;;;;37.67;14.80;;;;;;;;;;4921941;29;20127;-61
2022/01/14 00:06:45;;;;;;;42.80;17.08;;;;;;;;;;4935011;29;20043;-61
2022/01/14 00:09:12;;;;;;;37.50;15.07;;;;;;;;;;4929154;29;20572;-61
2022/01/14 00:11:44;;;;;;;39.58;16.17;;;;;;;;;;4930376;29;20066;-61
2022/01/14 00:14:21;;;;;;;37.63;15.95;;;;;;;;;;4934354;29;20063;-60
2022/01/14 00:16:48;;;;;;;32.13;15.95;;;;;;;;;;4932216;29;20067;-61
2022/01/14 00:19:15;;;;;;;39.78;16.50;;;;;;;;;;4935389;29;20146;-61
2022/01/14 00:21:43;;;;;;;38.40;14.38;;;;;;;;;;4930884;29;20244;-61
2022/01/14 00:24:23;;;;;;;38.65;16.65;;;;;;;;;;4930614;29;20090;-60
2022/01/14 00:32:20;;;;;;;38.33;14.40;;;;;;;;;;4929095;29;20649;-62
2022/01/14 00:34:47;;;;;;;40.05;15.52;;;;;;;;;;4929853;29;20114;-61
2022/01/14 00:37:14;;;;;;;37.40;13.85;;;;;;;;;;4928572;29;20062;-61
2022/01/14 00:39:43;;;;;;;34.83;14.98;;;;;;;;;;4927005;29;20133;-60
2022/01/14 00:42:10;;;;;;;36.30;15.52;;;;;;;;;;4931581;29;20384;-61
2022/01/14 00:44:37;;;;;;;36.00;16.63;;;;;;;;;;4929062;29;20143;-61
2022/01/14 00:47:05;;;;;;;38.00;15.75;;;;;;;;;;4931056;29;20098;-60
2022/01/14 00:49:32;;;;;;;38.13;15.85;;;;;;;;;;4928144;29;20146;-61
2022/01/14 00:51:58;;;;;;;33.80;13.18;;;;;;;;;;4929635;29;20556;-60
2022/01/14 00:54:26;;;;;;;41.30;16.67;;;;;;;;;;4930677;29;20138;-59
2022/01/14 00:57:13;;;;;;;33.35;14.23;;;;;;;;;;4930733;29;20500;-61
2022/01/14 00:59:39;;;;;;;47.17;18.73;;;;;;;;;;4927765;29;20059;-61
2022/01/14 01:02:06;;;;;;;42.65;17.05;;;;;;;;;;4928124;29;20624;-61
2022/01/14 01:04:36;;;;;;;31.42;14.85;;;;;;;;;;4933455;29;20143;-61
2022/01/14 01:07:05;;;;;;;35.25;14.60;;;;;;;;;;4932669;29;20492;-60
2022/01/14 01:09:32;;;;;;;36.33;14.48;;;;;;;;;;4930200;29;20059;-59
2022/01/14 01:12:11;;;;;;;37.38;17.30;;;;;;;;;;4925600;29;20048;-59
2022/01/14 01:14:44;;;;;;;34.20;12.90;;;;;;;;;;4911172;29;20126;-61
2022/01/14 01:17:11;;;;;;;37.78;13.85;;;;;;;;;;4922695;29;20111;-60
2022/01/14 01:19:38;;;;;;;38.65;15.52;;;;;;;;;;4932597;29;20455;-61
2022/01/14 01:22:05;;;;;;;44.78;16.33;;;;;;;;;;4928222;29;20148;-61
2022/01/14 01:24:31;;;;;;;41.97;14.52;;;;;;;;;;4926542;29;20051;-60
2022/01/14 01:27:04;;;;;;;36.75;14.35;;;;;;;;;;4927710;29;20083;-60
2022/01/14 01:29:46;;;;;;;53.75;17.42;;;;;;;;;;4923449;29;20067;-59
2022/01/14 01:32:12;;;;;;;44.03;15.50;;;;;;;;;;4924871;29;20047;-58
2022/01/14 01:34:39;;;;;;;71.47;17.33;;;;;;;;;;4926518;29;20054;-61
2022/01/14 01:37:06;;;;;;;40.45;15.15;;;;;;;;;;4927225;29;20475;-61
2022/01/14 01:39:34;;;;;;;41.67;14.02;;;;;;;;;;4929904;29;20058;-60
2022/01/14 01:42:06;;;;;;;41.13;14.30;;;;;;;;;;4932006;29;20055;-59
2022/01/14 01:44:33;;;;;;;36.78;14.43;;;;;;;;;;4927838;29;20496;-61
2022/01/14 01:47:00;;;;;;;36.47;13.25;;;;;;;;;;4931551;29;20155;-61
2022/01/14 01:49:29;;;;;;;49.55;15.20;;;;;;;;;;4925177;29;20110;-57
2022/01/14 01:51:56;;;;;;;35.97;13.10;;;;;;;;;;4930286;29;20071;-61
2022/01/14 01:54:23;;;;;;;35.45;13.77;;;;;;;;;;4931487;29;20130;-61
2022/01/14 01:56:53;;;;;;;120.00;17.45;;;;;;;;;;4928464;29;20054;-61
2022/01/14 01:59:23;;;;;;;69.13;16.70;;;;;;;;;;4924863;29;20082;-60
2022/01/14 02:01:51;;;;;;;47.33;15.07;;;;;;;;;;4924469;29;20130;-61
2022/01/14 02:04:40;;;;;;;56.33;15.68;;;;;;;;;;4928575;29;20393;-61
2022/01/14 02:07:07;;;;;;;52.92;15.52;;;;;;;;;;4929437;29;20072;-61
2022/01/14 02:09:33;;;;;;;48.58;15.95;;;;;;;;;;4928114;29;20131;-61
2022/01/14 02:12:05;;;;;;;42.00;13.50;;;;;;;;;;4926182;29;20155;-61
2022/01/14 02:14:54;;;;;;;40.47;14.68;;;;;;;;;;4923579;29;20052;-61
2022/01/14 02:17:34;;;;;;;37.67;14.25;;;;;;;;;;4927558;29;20095;-60
2022/01/14 02:22:54;;;;;;;31.17;13.45;;;;;;;;;;4924757;29;20058;-62
2022/01/14 02:25:28;;;;;;;41.95;16.20;;;;;;;;;;4924148;29;20115;-61
2022/01/14 02:27:56;;;;;;;47.10;16.20;;;;;;;;;;4927182;29;20091;-61
2022/01/14 02:30:24;;;;;;;38.58;13.98;;;;;;;;;;4927314;29;20754;-60
2022/01/14 02:32:50;;;;;;;101.00;18.23;;;;;;;;;;4928778;29;20130;-62
2022/01/14 02:35:18;;;;;;;37.72;15.02;;;;;;;;;;4925535;29;20071;-62
2022/01/14 02:37:45;;;;;;;38.70;14.27;;;;;;;;;;4927135;29;20075;-62
2022/01/14 02:40:13;;;;;;;33.22;12.45;;;;;;;;;;4926997;29;20079;-62
2022/01/14 02:42:39;;;;;;;52.80;13.93;;;;;;;;;;4928921;29;20135;-59
2022/01/14 02:45:10;;;;;;;33.38;13.43;;;;;;;;;;4937786;29;20047;-61
2022/01/14 02:47:37;;;;;;;37.00;11.50;;;;;;;;;;4926253;29;20048;-61
2022/01/14 02:50:04;;;;;;;31.67;12.73;;;;;;;;;;4925289;29;20138;-59
2022/01/14 02:52:43;;;;;;;31.17;14.70;;;;;;;;;;4929716;29;20504;-61
2022/01/14 02:55:18;;;;;;;38.17;13.75;;;;;;;;;;4926989;29;20079;-60
2022/01/14 02:57:46;;;;;;;36.92;13.07;;;;;;;;;;4924320;29;20060;-62
2022/01/14 03:00:14;;;;;;;32.72;12.98;;;;;;;;;;4930402;29;20138;-61
2022/01/14 03:02:43;;;;;;;68.05;17.60;;;;;;;;;;4930027;29;20135;-61
2022/01/14 03:05:10;;;;;;;34.78;13.50;;;;;;;;;;4927767;29;20079;-61
2022/01/14 03:07:39;;;;;;;39.03;13.63;;;;;;;;;;4928926;29;20052;-61
2022/01/14 03:10:07;;;;;;;34.80;14.77;;;;;;;;;;4926434;29;20876;-62
2022/01/14 03:12:34;;;;;;;40.60;14.23;;;;;;;;;;4928546;29;20127;-61
2022/01/14 03:15:00;;;;;;;36.45;15.27;;;;;;;;;;4925446;29;20537;-61
2022/01/14 03:17:28;;;;;;;35.35;13.52;;;;;;;;;;4920178;29;20102;-59
2022/01/14 03:19:55;;;;;;;39.72;15.45;;;;;;;;;;4930236;29;20052;-61
2022/01/14 03:22:27;;;;;;;38.00;14.38;;;;;;;;;;4926935;29;20516;-60
2022/01/14 03:27:39;;;;;;;31.52;12.48;;;;;;;;;;4925833;29;20054;-61
2022/01/14 03:30:06;;;;;;;31.02;12.82;;;;;;;;;;4929040;29;20083;-61
2022/01/14 03:32:33;;;;;;;29.70;12.73;;;;;;;;;;4925868;29;20079;-61
2022/01/14 03:34:59;;;;;;;29.30;12.23;;;;;;;;;;4929318;29;20072;-61
2022/01/14 03:37:26;;;;;;;32.78;14.48;;;;;;;;;;4926574;29;20225;-61
2022/01/14 03:39:52;;;;;;;39.72;15.40;;;;;;;;;;4926938;29;20139;-61
2022/01/14 03:42:20;;;;;;;34.10;14.45;;;;;;;;;;4929119;29;20138;-61
2022/01/14 03:44:47;;;;;;;36.35;13.27;;;;;;;;;;4927917;29;20501;-61
2022/01/14 03:47:13;;;;;;;34.13;14.00;;;;;;;;;;4928316;29;20130;-61
2022/01/14 03:49:40;;;;;;;35.45;13.52;;;;;;;;;;4928670;29;21472;-60
2022/01/14 03:52:07;;;;;;;40.67;14.38;;;;;;;;;;4930923;29;20087;-60
2022/01/14 03:54:34;;;;;;;31.15;12.60;;;;;;;;;;4933362;29;20048;-61
2022/01/14 03:57:00;;;;;;;35.13;14.73;;;;;;;;;;4927854;29;20059;-61
2022/01/14 03:59:28;;;;;;;35.05;13.75;;;;;;;;;;4931936;29;20131;-61
2022/01/14 04:01:55;;;;;;;36.85;14.38;;;;;;;;;;4929037;29;20127;-61
2022/01/14 04:04:21;;;;;;;40.33;14.07;;;;;;;;;;4940978;29;20543;-61
2022/01/14 04:06:48;;;;;;;32.25;14.20;;;;;;;;;;4927285;29;20123;-61
2022/01/14 04:09:14;;;;;;;35.17;13.13;;;;;;;;;;4929098;29;20580;-61
2022/01/14 04:11:44;;;;;;;39.97;15.27;;;;;;;;;;4941515;29;20083;-61
2022/01/14 04:15:36;;;;;;;36.78;13.68;;;;;;;;;;4928568;29;20874;-61
2022/01/14 04:17:09;;;;;;;32.03;14.95;;;;;;;;;;4928795;29;20054;-61
2022/01/14 04:19:36;;;;;;;41.15;15.07;;;;;;;;;;4931888;29;20512;-61
2022/01/14 04:22:02;;;;;;;36.70;13.88;;;;;;;;;;4929407;29;20139;-61
2022/01/14 04:24:29;;;;;;;33.13;13.23;;;;;;;;;;4927480;29;20075;-61
2022/01/14 04:26:55;;;;;;;34.10;12.57;;;;;;;;;;4927797;29;20138;-59
2022/01/14 04:29:22;;;;;;;27.95;11.82;;;;;;;;;;4930712;29;20130;-61
2022/01/14 04:31:48;;;;;;;34.63;13.98;;;;;;;;;;4931598;29;20071;-60
2022/01/14 04:34:16;;;;;;;33.72;13.77;;;;;;;;;;4928980;29;20138;-60
2022/01/14 04:36:43;;;;;;;34.95;14.10;;;;;;;;;;4925087;29;20087;-61
2022/01/14 04:39:10;;;;;;;30.40;14.40;;;;;;;;;;4929722;29;20072;-61
2022/01/14 04:41:36;;;;;;;40.28;15.07;;;;;;;;;;4933537;29;20075;-60
2022/01/14 04:44:05;;;;;;;42.33;17.33;;;;;;;;;;4926910;29;20079;-59
2022/01/14 04:47:01;;;;;;;35.67;14.18;;;;;;;;;;4929505;29;20066;-61
2022/01/14 04:49:29;;;;;;;46.50;17.40;;;;;;;;;;4932177;29;20052;-61
2022/01/14 04:51:56;;;;;;;39.20;16.48;;;;;;;;;;4931153;29;20083;-60
2022/01/14 04:54:23;;;;;;;39.15;16.30;;;;;;;;;;4929670;29;20056;-61
2022/01/14 04:56:51;;;;;;;40.63;16.52;;;;;;;;;;4924253;29;20604;-61
2022/01/14 04:59:17;;;;;;;41.40;15.05;;;;;;;;;;4930530;29;20071;-61
2022/01/14 05:01:44;;;;;;;42.22;15.90;;;;;;;;;;4928188;29;20134;-61
2022/01/14 05:04:10;;;;;;;41.90;16.75;;;;;;;;;;4926573;29;20091;-61
2022/01/14 05:06:40;;;;;;;38.67;14.43;;;;;;;;;;4931701;29;20102;-61
2022/01/14 05:09:17;;;;;;;43.60;16.70;;;;;;;;;;4928927;29;20055;-61
2022/01/14 05:11:52;;;;;;;48.08;17.25;;;;;;;;;;4927833;29;20060;-59
2022/01/14 05:14:18;;;;;;;48.17;17.50;;;;;;;;;;4930366;29;20047;-61
2022/01/14 05:16:45;;;;;;;48.00;17.10;;;;;;;;;;4929366;29;20095;-61
2022/01/14 05:19:11;;;;;;;47.83;17.30;;;;;;;;;;4923395;29;20473;-61
2022/01/14 05:21:39;;;;;;;44.30;16.90;;;;;;;;;;4930515;29;20135;-61
2022/01/14 05:24:06;;;;;;;53.35;18.65;;;;;;;;;;4925253;29;20052;-63
2022/01/14 05:26:33;;;;;;;41.55;16.27;;;;;;;;;;4929867;29;20091;-61
2022/01/14 05:28:59;;;;;;;55.78;18.58;;;;;;;;;;4925952;29;20131;-60
2022/01/14 05:31:41;;;;;;;36.90;15.32;;;;;;;;;;4929725;29;20081;-61
2022/01/14 05:34:07;;;;;;;43.60;17.80;;;;;;;;;;4929334;29;20469;-61
2022/01/14 05:36:34;;;;;;;43.58;15.57;;;;;;;;;;4927445;29;20131;-61
2022/01/14 05:39:02;;;;;;;38.20;14.80;;;;;;;;;;4924202;29;20508;-61
2022/01/14 05:41:28;;;;;;;43.17;16.73;;;;;;;;;;4929235;29;20196;-61
2022/01/14 05:43:55;;;;;;;39.90;14.27;;;;;;;;;;4929428;29;20147;-61
2022/01/14 05:46:22;;;;;;;46.85;16.88;;;;;;;;;;4928669;29;20130;-61
2022/01/14 05:48:49;;;;;;;39.60;14.07;;;;;;;;;;4923137;29;20139;-61
2022/01/14 05:51:16;;;;;;;46.80;16.88;;;;;;;;;;4931778;29;20087;-61
2022/01/14 05:53:42;;;;;;;41.78;14.80;;;;;;;;;;4928686;29;20075;-60
2022/01/14 05:56:10;;;;;;;37.92;13.98;;;;;;;;;;4929071;29;20079;-62
2022/01/14 05:58:37;;;;;;;36.47;14.80;;;;;;;;;;4930385;29;20097;-61
2022/01/14 06:01:03;;;;;;;37.55;15.70;;;;;;;;;;4929566;29;20186;-61
2022/01/14 06:03:30;;;;;;;35.35;15.00;;;;;;;;;;4929231;29;20135;-61
2022/01/14 06:05:56;;;;;;;41.58;18.25;;;;;;;;;;4926837;29;20071;-61
2022/01/14 06:08:23;;;;;;;38.38;16.27;;;;;;;;;;4928006;29;20131;-61
2022/01/14 06:10:49;;;;;;;44.63;17.48;;;;;;;;;;4932066;29;20079;-61
2022/01/14 06:13:19;;;;;;;38.85;15.90;;;;;;;;;;4931467;29;20070;-60
2022/01/14 06:15:45;;;;;;;34.83;13.80;;;;;;;;;;4930551;29;20122;-61
2022/01/14 06:18:12;;;;;;;38.80;14.35;;;;;;;;;;4926032;29;20580;-61
2022/01/14 06:20:38;;;;;;;36.65;14.45;;;;;;;;;;4922061;29;20458;-61
2022/01/14 06:23:05;;;;;;;32.55;14.90;;;;;;;;;;4937315;28;20079;-60
2022/01/14 06:25:31;;;;;;;34.80;12.95;;;;;;;;;;4941974;28;20136;-61
2022/01/14 06:27:58;;;;;;;36.45;14.73;;;;;;;;;;4930251;29;20075;-61
2022/01/14 06:30:26;;;;;;;36.33;15.13;;;;;;;;;;4930491;29;20086;-60
2022/01/14 06:32:53;;;;;;;37.22;14.80;;;;;;;;;;4921347;29;20127;-63
2022/01/14 06:35:20;;;;;;;28.02;12.75;;;;;;;;;;4930126;29;20055;-61
2022/01/14 06:37:47;;;;;;;38.78;15.85;;;;;;;;;;4926718;29;20477;-61
2022/01/14 06:40:13;;;;;;;34.35;13.82;;;;;;;;;;4929903;29;20086;-60
2022/01/14 06:42:40;;;;;;;33.22;13.40;;;;;;;;;;4924629;29;20075;-61
2022/01/14 06:45:08;;;;;;;38.67;14.32;;;;;;;;;;4925376;29;20052;-60
2022/01/14 06:47:36;;;;;;;36.45;13.95;;;;;;;;;;4924927;29;20130;-60
2022/01/14 06:50:03;;;;;;;34.65;12.73;;;;;;;;;;4927063;29;20134;-61
2022/01/14 06:52:30;;;;;;;29.88;12.35;;;;;;;;;;4932972;29;20523;-61
2022/01/14 06:54:56;;;;;;;38.95;14.10;;;;;;;;;;4932857;29;20131;-61
2022/01/14 06:57:24;;;;;;;33.55;13.52;;;;;;;;;;4926158;29;20094;-60
2022/01/14 06:59:51;;;;;;;33.17;13.30;;;;;;;;;;4930039;29;20059;-60
2022/01/14 07:02:17;;;;;;;31.83;15.77;;;;;;;;;;4925794;29;20131;-61
2022/01/14 07:04:45;;;;;;;34.60;13.13;;;;;;;;;;4932624;29;20681;-61
2022/01/14 07:07:12;;;;;;;40.28;14.50;;;;;;;;;;4927236;29;20131;-60
2022/01/14 07:09:55;;;;;;;35.38;15.45;;;;;;;;;;4929520;29;20085;-60
2022/01/14 07:12:22;;;;;;;30.55;13.57;;;;;;;;;;4929383;29;20055;-61
2022/01/14 07:14:49;;;;;;;34.13;13.40;;;;;;;;;;4927554;29;20504;-61
2022/01/14 07:17:15;;;;;;;34.65;15.00;;;;;;;;;;4930084;29;20074;-60
2022/01/14 07:19:42;;;;;;;33.67;12.77;;;;;;;;;;4937199;29;20163;-60
2022/01/14 07:22:10;;;;;;;37.08;13.30;;;;;;;;;;4937010;29;20083;-61
2022/01/14 07:24:37;;;;;;;34.95;14.88;;;;;;;;;;4925924;29;20083;-59
2022/01/14 07:27:04;;;;;;;36.03;13.88;;;;;;;;;;4922200;29;20588;-61
2022/01/14 07:29:31;;;;;;;29.73;12.95;;;;;;;;;;4933362;29;20098;-61
2022/01/14 07:31:58;;;;;;;32.97;12.25;;;;;;;;;;4928541;29;20099;-61
2022/01/14 07:34:25;;;;;;;36.65;14.52;;;;;;;;;;4932081;29;20404;-60
2022/01/14 07:36:51;;;;;;;32.83;15.00;;;;;;;;;;4930330;29;20139;-61
2022/01/14 07:39:20;;;;;;;41.47;14.88;;;;;;;;;;4922603;29;20135;-60
2022/01/14 07:41:46;;;;;;;34.92;15.60;;;;;;;;;;4929310;29;20131;-61
2022/01/14 07:44:13;;;;;;;31.05;15.77;;;;;;;;;;4924134;29;20079;-61
2022/01/14 07:46:39;;;;;;;35.13;15.10;;;;;;;;;;4921038;29;20647;-61
2022/01/14 07:49:06;;;;;;;36.67;15.57;;;;;;;;;;4925656;29;20131;-61
2022/01/14 07:51:33;;;;;;;30.50;13.93;;;;;;;;;;4932407;29;20043;-61
2022/01/14 07:54:04;;;;;;;36.08;16.00;;;;;;;;;;4931860;29;20079;-60
2022/01/14 07:56:33;;;;;;;39.50;17.70;;;;;;;;;;4924354;29;20054;-61
2022/01/14 07:58:59;;;;;;;45.58;17.90;;;;;;;;;;4911794;29;20059;-58
2022/01/14 08:01:27;;;;;;;41.53;17.67;;;;;;;;;;4926984;29;20074;-60
2022/01/14 08:03:54;;;;;;;37.30;16.30;;;;;;;;;;4912036;29;20142;-61
2022/01/14 08:06:22;;;;;;;43.63;17.20;;;;;;;;;;4929010;29;20495;-61
2022/01/14 08:08:49;;;;;;;43.78;16.67;;;;;;;;;;4924891;29;20460;-61
2022/01/14 08:11:15;;;;;;;38.60;15.80;;;;;;;;;;4924137;29;20512;-61
2022/01/14 08:13:43;;;;;;;39.05;15.90;;;;;;;;;;4929695;29;20123;-61
2022/01/14 08:16:10;;;;;;;37.60;16.40;;;;;;;;;;4928140;29;20162;-58
2022/01/14 08:18:37;;;;;;;45.67;17.35;;;;;;;;;;4929287;29;20071;-61
2022/01/14 08:21:04;;;;;;;43.13;18.75;;;;;;;;;;4912645;29;20052;-61
2022/01/14 08:23:31;;;;;;;41.55;17.63;;;;;;;;;;4927404;29;20540;-61
2022/01/14 08:25:57;;;;;;;39.75;17.55;;;;;;;;;;4930175;29;20086;-61
2022/01/14 08:28:24;;;;;;;40.20;17.05;;;;;;;;;;4939444;28;20055;-61
2022/01/14 08:30:52;;;;;;;40.78;16.92;;;;;;;;;;4934736;29;20075;-61
2022/01/14 08:33:19;;;;;;;36.88;17.40;;;;;;;;;;4930128;29;20082;-61
2022/01/14 08:35:46;;;;;;;37.72;16.95;;;;;;;;;;4934712;29;20083;-61
2022/01/14 08:38:12;;;;;;;35.40;18.20;;;;;;;;;;4926812;29;20055;-59
2022/01/14 08:40:39;;;;;;;33.25;16.10;;;;;;;;;;4928375;29;20087;-60
2022/01/14 08:43:06;;;;;;;42.85;18.88;;;;;;;;;;4932257;29;20139;-61
2022/01/14 08:45:33;;;;;;;42.88;18.67;;;;;;;;;;4927851;29;20078;-61
2022/01/14 08:48:01;;;;;;;35.42;16.67;;;;;;;;;;4928765;29;20092;-59
2022/01/14 08:50:29;;;;;;;42.67;17.58;;;;;;;;;;4931252;29;20083;-62
2022/01/14 08:52:57;;;;;;;39.15;18.52;;;;;;;;;;4927245;29;20130;-62
2022/01/14 08:55:24;;;;;;;42.47;18.08;;;;;;;;;;4926221;29;20484;-61
2022/01/14 08:57:50;;;;;;;38.53;17.08;;;;;;;;;;4923362;29;20144;-61
2022/01/14 09:00:19;;;;;;;39.95;18.85;;;;;;;;;;4926355;29;20636;-61
2022/01/14 09:02:46;;;;;;;39.42;18.05;;;;;;;;;;4928347;29;20553;-61
2022/01/14 09:05:14;;;;;;;42.30;18.10;;;;;;;;;;4934166;29;20063;-61
2022/01/14 09:07:41;;;;;;;44.80;19.85;;;;;;;;;;4925144;29;20052;-62
2022/01/14 09:10:09;;;;;;;38.30;18.10;;;;;;;;;;4927460;29;20052;-61
2022/01/14 09:12:36;;;;;;;39.38;18.85;;;;;;;;;;4935701;29;20146;-62
2022/01/14 09:15:02;;;;;;;40.03;18.55;;;;;;;;;;4931822;29;20130;-62
2022/01/14 09:17:29;;;;;;;35.17;17.10;;;;;;;;;;4929719;29;20079;-62
2022/01/14 09:19:56;;;;;;;33.03;15.75;;;;;;;;;;4929894;29;20083;-62
2022/01/14 09:22:26;;;;;;;40.22;19.52;;;;;;;;;;4929070;29;20138;-62
2022/01/14 09:24:56;;;;;;;35.42;17.15;;;;;;;;;;4929817;29;20047;-62
2022/01/14 09:27:23;;;;;;;41.92;19.25;;;;;;;;;;4926827;29;20047;-59
2022/01/14 09:29:49;;;;;;;41.13;20.13;;;;;;;;;;4934632;29;20508;-62
2022/01/14 09:32:16;;;;;;;39.55;16.80;;;;;;;;;;4930740;29;20094;-62
2022/01/14 09:34:42;;;;;;;36.50;19.20;;;;;;;;;;4931748;29;20123;-62
2022/01/14 09:37:09;;;;;;;31.75;16.67;;;;;;;;;;4929647;28;20103;-62
2022/01/14 09:39:39;;;;;;;40.97;18.20;;;;;;;;;;4925002;29;20139;-62
2022/01/14 09:42:07;;;;;;;35.78;17.48;;;;;;;;;;4939085;29;20135;-62
2022/01/14 09:44:33;;;;;;;34.78;17.50;;;;;;;;;;4932264;29;20140;-62
2022/01/14 09:47:00;;;;;;;34.00;17.55;;;;;;;;;;4927384;29;20694;-62
2022/01/14 09:49:27;;;;;;;33.22;17.17;;;;;;;;;;4925511;28;20046;-62
2022/01/14 09:51:53;;;;;;;29.73;16.13;;;;;;;;;;4928518;29;20132;-62
2022/01/14 09:54:20;;;;;;;29.92;15.88;;;;;;;;;;4927861;29;20975;-62
2022/01/14 09:56:47;;;;;;;36.03;16.58;;;;;;;;;;4927488;29;20127;-62
2022/01/14 09:59:16;;;;;;;30.45;16.70;;;;;;;;;;4923344;29;20075;-63
2022/01/14 10:01:44;;;;;;;32.75;15.80;;;;;;;;;;4933367;29;20132;-62
2022/01/14 10:04:14;;;;;;;32.28;16.35;;;;;;;;;;4935106;29;20114;-63
2022/01/14 10:06:42;;;;;;;30.90;16.40;;;;;;;;;;4927114;29;20135;-62
2022/01/14 10:09:11;;;;;;;31.73;15.65;;;;;;;;;;4927100;29;20116;-62
2022/01/14 10:11:39;;;;;;;31.80;16.05;;;;;;;;;;4921331;29;20103;-62
2022/01/14 10:14:10;;;;;;;29.83;16.00;;;;;;;;;;4932108;29;20060;-62
2022/01/14 10:16:40;;;;;;;29.95;15.77;;;;;;;;;;4924148;29;20052;-62
2022/01/14 10:19:18;;;;;;;33.58;16.63;;;;;;;;;;4928181;29;20603;-62
2022/01/14 10:21:45;;;;;;;29.23;15.30;;;;;;;;;;4926699;29;20084;-62
2022/01/14 10:24:11;;;;;;;30.48;16.95;;;;;;;;;;4926522;29;20560;-62
2022/01/14 10:26:47;;;;;;;30.42;16.13;;;;;;;;;;4920695;29;20119;-62
2022/01/14 10:29:15;;;;;;;35.78;15.40;;;;;;;;;;4934830;29;20090;-62
2022/01/14 10:31:44;;;;;;;34.90;15.02;;;;;;;;;;4932221;29;20417;-62
2022/01/14 10:34:11;;;;;;;27.98;15.07;;;;;;;;;;4943800;29;20484;-62
2022/01/14 10:36:38;;;;;;;29.95;15.32;;;;;;;;;;4921968;29;20056;-62
2022/01/14 10:39:19;;;;;;;33.47;14.90;;;;;;;;;;4921255;29;20052;-60
2022/01/14 10:41:46;;;;;;;23.20;13.60;;;;;;;;;;4929464;29;20151;-60
2022/01/14 10:44:27;;;;;;;27.45;15.10;;;;;;;;;;4908590;29;20143;-62
2022/01/14 10:47:12;;;;;;;27.67;15.75;;;;;;;;;;4923967;29;20750;-61
2022/01/14 10:49:39;;;;;;;28.38;15.65;;;;;;;;;;4927639;29;20138;-62
2022/01/14 10:52:15;;;;;;;26.15;16.10;;;;;;;;;;4931747;29;20149;-61
2022/01/14 10:54:44;;;;;;;29.42;16.23;;;;;;;;;;4930253;29;20168;-59
2022/01/14 10:57:15;;;;;;;29.73;15.60;;;;;;;;;;4926922;29;20135;-61
2022/01/14 10:59:44;;;;;;;27.15;14.95;;;;;;;;;;4922058;29;20086;-60
2022/01/14 11:02:36;;;;;;;27.13;16.45;;;;;;;;;;4930821;29;20059;-62
2022/01/14 11:05:09;;;;;;;29.00;15.95;;;;;;;;;;4936226;29;20070;-62
2022/01/14 11:07:36;;;;;;;32.90;18.50;;;;;;;;;;4929211;29;20063;-63
2022/01/14 11:10:14;;;;;;;31.63;17.02;;;;;;;;;;4926480;29;20135;-63
2022/01/14 11:12:41;;;;;;;29.52;17.08;;;;;;;;;;4927882;29;20164;-62
2022/01/14 11:15:10;;;;;;;35.33;17.42;;;;;;;;;;4931999;29;20124;-62
2022/01/14 11:17:38;;;;;;;44.95;17.50;;;;;;;;;;4926663;29;20127;-63
2022/01/14 11:20:06;;;;;;;29.45;16.95;;;;;;;;;;4924372;29;20060;-62
2022/01/14 11:25:17;;;;;;;30.08;15.18;;;;;;;;;;4930585;29;20058;-63
2022/01/14 11:27:48;;;;;;;27.05;16.08;;;;;;;;;;4922683;29;20150;-63
2022/01/14 11:30:16;;;;;;;38.88;18.02;;;;;;;;;;4924516;29;20090;-61
2022/01/14 11:32:53;;;;;;;28.73;17.38;;;;;;;;;;4925503;29;20120;-63
2022/01/14 11:35:21;;;;;;;34.08;18.85;;;;;;;;;;4926393;29;20130;-62
2022/01/14 11:37:47;;;;;;;38.58;18.73;;;;;;;;;;4925576;29;20135;-62
2022/01/14 11:40:15;;;;;;;27.25;15.82;;;;;;;;;;4927801;29;20086;-63
2022/01/14 11:42:44;;;;;;;28.92;16.73;;;;;;;;;;4923216;29;20047;-63
2022/01/14 11:45:12;;;;;;;40.50;18.05;;;;;;;;;;4929699;29;20071;-63
2022/01/14 11:48:00;;;;;;;28.83;15.73;;;;;;;;;;4926531;29;20131;-64
2022/01/14 11:50:47;;;;;;;28.42;17.92;;;;;;;;;;4929204;29;20054;-63
2022/01/14 11:53:38;;;;;;;24.75;14.30;;;;;;;;;;4912068;29;20125;-63
2022/01/14 11:56:07;;;;;;;24.58;14.82;;;;;;;;;;4927825;29;20075;-64
2022/01/14 11:58:34;;;;;;;28.15;14.95;;;;;;;;;;4931770;29;20135;-64
2022/01/14 12:01:01;;;;;;;26.60;15.45;;;;;;;;;;4931575;29;20130;-64
2022/01/14 12:03:32;;;;;;;22.55;14.35;;;;;;;;;;4933031;29;20812;-64
2022/01/14 12:06:02;;;;;;;26.42;15.00;;;;;;;;;;4934432;29;20071;-64
2022/01/14 12:08:30;;;;;;;27.67;15.57;;;;;;;;;;4926515;29;20047;-64
2022/01/14 12:10:59;;;;;;;25.83;14.32;;;;;;;;;;4935837;29;20079;-64
2022/01/14 12:13:31;;;;;;;23.98;14.00;;;;;;;;;;4933099;29;20075;-64
2022/01/14 12:16:00;;;;;;;27.45;14.93;;;;;;;;;;4930699;29;20051;-64
2022/01/14 12:19:02;;;;;;;24.05;14.65;;;;;;;;;;4925156;29;20362;-64
2022/01/14 12:21:54;;;;;;;25.00;14.27;;;;;;;;;;4931049;29;20044;-65
2022/01/14 12:24:51;;;;;;;25.17;14.27;;;;;;;;;;4931548;29;20104;-64
2022/01/14 12:27:44;;;;;;;22.35;13.88;;;;;;;;;;4932060;29;20485;-64
2022/01/14 12:30:19;;;;;;;23.35;13.52;;;;;;;;;;4932297;29;20059;-64
2022/01/14 12:32:49;;;;;;;26.10;14.82;;;;;;;;;;4929781;29;20146;-64
2022/01/14 12:35:18;;;;;;;25.65;14.75;;;;;;;;;;4929419;29;20070;-65
2022/01/14 12:37:49;;;;;;;23.25;13.90;;;;;;;;;;4928529;29;20099;-65
2022/01/14 12:40:20;;;;;;;22.70;14.20;;;;;;;;;;4929766;29;20143;-65
2022/01/14 12:42:53;;;;;;;22.75;13.23;;;;;;;;;;4929643;29;20075;-64
2022/01/14 12:45:27;;;;;;;23.15;14.90;;;;;;;;;;4930562;29;20059;-64
2022/01/14 12:48:01;;;;;;;21.42;13.68;;;;;;;;;;4929266;29;20138;-64
2022/01/14 12:50:30;;;;;;;22.30;13.13;;;;;;;;;;4929155;29;20063;-64
2022/01/14 12:52:58;;;;;;;25.08;14.82;;;;;;;;;;4930818;29;20055;-64
2022/01/14 12:55:24;;;;;;;25.40;14.18;;;;;;;;;;4931266;29;20135;-64
2022/01/14 12:57:56;;;;;;;21.08;11.98;;;;;;;;;;4929115;29;20710;-65
2022/01/14 13:00:23;;;;;;;23.05;13.88;;;;;;;;;;4928857;29;20079;-64
2022/01/14 13:02:51;;;;;;;21.65;12.32;;;;;;;;;;4929728;29;20146;-65
2022/01/14 13:05:20;;;;;;;21.67;13.32;;;;;;;;;;4929324;29;20114;-65
2022/01/14 13:07:47;;;;;;;21.02;11.75;;;;;;;;;;4928421;29;20139;-64
2022/01/14 13:10:17;;;;;;;20.42;12.57;;;;;;;;;;4927728;29;20074;-63
2022/01/14 13:12:45;;;;;;;18.92;12.65;;;;;;;;;;4929448;29;20139;-63
2022/01/14 13:15:16;;;;;;;18.02;12.10;;;;;;;;;;4927539;29;20052;-63
2022/01/14 13:17:53;;;;;;;18.05;11.32;;;;;;;;;;4930281;29;20059;-62
2022/01/14 13:20:21;;;;;;;20.23;11.05;;;;;;;;;;4928781;29;20058;-62
2022/01/14 13:22:49;;;;;;;20.70;13.15;;;;;;;;;;4932345;29;20588;-62
2022/01/14 13:25:18;;;;;;;20.20;13.10;;;;;;;;;;4912068;29;20198;-62
2022/01/14 13:27:48;;;;;;;19.80;12.13;;;;;;;;;;4929309;29;20071;-63
2022/01/14 13:30:17;;;;;;;20.45;12.05;;;;;;;;;;4926405;29;20126;-65
2022/01/14 13:32:44;;;;;;;17.73;10.88;;;;;;;;;;4930366;29;20131;-62
2022/01/14 13:35:14;;;;;;;19.80;11.65;;;;;;;;;;4931232;29;20083;-63
2022/01/14 13:37:42;;;;;;;21.42;11.88;;;;;;;;;;4935038;29;20056;-62
2022/01/14 13:40:12;;;;;;;20.67;12.65;;;;;;;;;;4938727;29;20134;-62
2022/01/14 13:42:41;;;;;;;20.75;11.88;;;;;;;;;;4933320;29;20184;-63
2022/01/14 13:45:15;;;;;;;19.40;11.20;;;;;;;;;;4930931;29;20075;-63
2022/01/14 13:47:42;;;;;;;18.73;10.68;;;;;;;;;;4911454;28;20681;-63
2022/01/14 13:50:11;;;;;;;19.55;11.95;;;;;;;;;;4933568;29;20047;-63
2022/01/14 13:52:43;;;;;;;19.67;11.63;;;;;;;;;;4932085;29;20090;-62
2022/01/14 13:55:10;;;;;;;19.08;10.77;;;;;;;;;;4931661;29;20051;-63
2022/01/14 13:57:36;;;;;;;18.52;11.15;;;;;;;;;;4924913;29;20140;-63
2022/01/14 14:00:10;;;;;;;19.95;11.40;;;;;;;;;;4929102;29;20102;-63
2022/01/14 14:02:46;;;;;;;19.63;11.45;;;;;;;;;;4925330;29;20091;-63
2022/01/14 14:05:33;;;;;;;18.90;11.55;;;;;;;;;;4936291;29;20056;-63
2022/01/14 14:08:06;;;;;;;18.15;11.73;;;;;;;;;;4930406;29;20150;-63
2022/01/14 14:11:11;;;;;;;17.55;10.85;;;;;;;;;;4936060;29;20081;-64
2022/01/14 14:15:37;;;;;;;;;;;;;;;;;;4939349;29;20062;-63
2022/01/14 14:16:32;;;;;;;19.05;12.13;;;;;;;;;;4931773;29;19923;-63
2022/01/14 14:18:59;;;;;;;21.17;12.57;;;;;;;;;;4927757;29;20147;-63
2022/01/14 14:21:29;;;;;;;16.90;11.02;;;;;;;;;;4928663;29;20078;-63
2022/01/14 14:23:56;;;;;;;18.90;10.70;;;;;;;;;;4920406;29;20067;-63
2022/01/14 14:26:29;;;;;;;21.48;10.90;;;;;;;;;;4927295;29;20043;-63
2022/01/14 14:28:57;;;;;;;19.63;10.95;;;;;;;;;;4929371;29;20059;-62
2022/01/14 14:31:28;;;;;;;16.80;10.55;;;;;;;;;;4925427;29;20067;-62
2022/01/14 14:33:56;;;;;;;13.93;9.75;;;;;;;;;;4933694;29;20524;-62
2022/01/14 14:36:26;;;;;;;20.80;9.85;;;;;;;;;;4932059;29;20071;-62
2022/01/14 14:38:53;;;;;;;15.68;9.85;;;;;;;;;;4929198;29;20465;-62
2022/01/14 14:41:19;;;;;;;14.35;9.05;;;;;;;;;;4935966;29;20083;-62
2022/01/14 14:43:46;;;;;;;15.57;9.65;;;;;;;;;;4932126;29;20083;-62
2022/01/14 14:46:12;;;;;;;14.98;9.13;;;;;;;;;;4929145;29;20094;-63